sensor_id;sensor_type;location;lat;lon;timestamp;temperature;humidity
19781;DHT22;10050;55.492;13.506;2024-02-16T00:00:07;8.50;99.90
19781;DHT22;10050;55.492;13.506;2024-02-16T00:02:33;8.50;99.90
19781;DHT22;10050;55.492;13.506;2024-02-16T00:04:58;8.60;99.90
19781;DHT22;10050;55.492;13.506;2024-02-16T00:07:24;8.60;99.90
19781;DHT22;10050;55.492;13.506;2024-02-16T00:09:50;8.70;99.90
19781;DHT22;10050;55.492;13.506;2024-02-16T00:12:16;8.70;99.90
19781;DHT22;10050;55.492;13.506;2024-02-16T00:14:42;8.70;99.90
19781;DHT22;10050;55.492;13.506;2024-02-16T00:17:08;8.70;99.90
19781;DHT22;10050;55.492;13.506;2024-02-16T00:19:35;8.70;99.90
19781;DHT22;10050;55.492;13.506;2024-02-16T00:22:02;8.80;99.90
19781;DHT22;10050;55.492;13.506;2024-02-16T00:24:28;8.70;99.90
19781;DHT22;10050;55.492;13.506;2024-02-16T00:26:54;8.80;99.90
19781;DHT22;10050;55.492;13.506;2024-02-16T00:29:19;8.80;99.90
19781;DHT22;10050;55.492;13.506;2024-02-16T00:31:45;8.80;99.90
19781;DHT22;10050;55.492;13.506;2024-02-16T00:34:11;8.70;99.90
19781;DHT22;10050;55.492;13.506;2024-02-16T00:36:36;8.70;99.90
19781;DHT22;10050;55.492;13.506;2024-02-16T00:39:02;8.70;99.90
19781;DHT22;10050;55.492;13.506;2024-02-16T00:41:29;8.70;99.90
19781;DHT22;10050;55.492;13.506;2024-02-16T00:43:54;8.60;99.90
19781;DHT22;10050;55.492;13.506;2024-02-16T00:46:21;8.60;99.90
19781;DHT22;10050;55.492;13.506;2024-02-16T00:48:52;8.60;99.90
19781;DHT22;10050;55.492;13.506;2024-02-16T00:51:17;8.60;99.90
19781;DHT22;10050;55.492;13.506;2024-02-16T00:53:43;8.60;99.90
19781;DHT22;10050;55.492;13.506;2024-02-16T00:56:09;8.50;99.90
19781;DHT22;10050;55.492;13.506;2024-02-16T00:58:36;8.60;99.90
19781;DHT22;10050;55.492;13.506;2024-02-16T01:01:03;8.60;99.90
19781;DHT22;10050;55.492;13.506;2024-02-16T01:03:29;8.60;99.90
19781;DHT22;10050;55.492;13.506;2024-02-16T01:05:55;8.60;99.90
19781;DHT22;10050;55.492;13.506;2024-02-16T01:08:20;8.60;99.90
19781;DHT22;10050;55.492;13.506;2024-02-16T01:10:46;8.70;99.90
19781;DHT22;10050;55.492;13.506;2024-02-16T01:13:12;8.70;99.90
19781;DHT22;10050;55.492;13.506;2024-02-16T01:15:38;8.70;99.90
19781;DHT22;10050;55.492;13.506;2024-02-16T01:18:06;8.70;99.90
19781;DHT22;10050;55.492;13.506;2024-02-16T01:20:32;8.70;99.90
19781;DHT22;10050;55.492;13.506;2024-02-16T01:22:58;8.80;99.90
19781;DHT22;10050;55.492;13.506;2024-02-16T01:25:23;8.80;99.90
19781;DHT22;10050;55.492;13.506;2024-02-16T01:27:49;8.80;99.90
19781;DHT22;10050;55.492;13.506;2024-02-16T01:30:14;8.80;99.90
19781;DHT22;10050;55.492;13.506;2024-02-16T01:32:41;8.80;99.90
19781;DHT22;10050;55.492;13.506;2024-02-16T01:35:07;8.80;99.90
19781;DHT22;10050;55.492;13.506;2024-02-16T01:37:33;8.90;99.90
19781;DHT22;10050;55.492;13.506;2024-02-16T01:39:58;8.80;99.90
19781;DHT22;10050;55.492;13.506;2024-02-16T01:42:24;8.80;99.90
19781;DHT22;10050;55.492;13.506;2024-02-16T01:44:50;8.80;99.90
19781;DHT22;10050;55.492;13.506;2024-02-16T01:47:19;8.70;99.90
19781;DHT22;10050;55.492;13.506;2024-02-16T01:49:45;8.60;99.90
19781;DHT22;10050;55.492;13.506;2024-02-16T01:52:11;8.70;99.90
19781;DHT22;10050;55.492;13.506;2024-02-16T01:54:37;8.60;99.90
19781;DHT22;10050;55.492;13.506;2024-02-16T01:57:05;8.60;99.90
19781;DHT22;10050;55.492;13.506;2024-02-16T01:59:32;8.50;99.90
19781;DHT22;10050;55.492;13.506;2024-02-16T02:01:59;8.50;99.90
19781;DHT22;10050;55.492;13.506;2024-02-16T02:04:26;8.50;99.90
19781;DHT22;10050;55.492;13.506;2024-02-16T02:06:52;8.50;99.90
19781;DHT22;10050;55.492;13.506;2024-02-16T02:09:18;8.50;99.90
19781;DHT22;10050;55.492;13.506;2024-02-16T02:11:44;8.50;99.90
19781;DHT22;10050;55.492;13.506;2024-02-16T02:14:10;8.40;99.90
19781;DHT22;10050;55.492;13.506;2024-02-16T02:16:35;8.50;99.90
19781;DHT22;10050;55.492;13.506;2024-02-16T02:19:02;8.40;99.90
19781;DHT22;10050;55.492;13.506;2024-02-16T02:21:50;8.40;99.90
19781;DHT22;10050;55.492;13.506;2024-02-16T02:24:16;8.40;99.90
19781;DHT22;10050;55.492;13.506;2024-02-16T02:26:51;8.40;99.90
19781;DHT22;10050;55.492;13.506;2024-02-16T02:29:22;8.40;99.90
19781;DHT22;10050;55.492;13.506;2024-02-16T02:32:27;8.30;99.90
19781;DHT22;10050;55.492;13.506;2024-02-16T02:34:54;8.40;99.90
19781;DHT22;10050;55.492;13.506;2024-02-16T02:37:19;8.40;99.90
19781;DHT22;10050;55.492;13.506;2024-02-16T02:39:45;8.40;99.90
19781;DHT22;10050;55.492;13.506;2024-02-16T02:42:11;8.40;99.90
19781;DHT22;10050;55.492;13.506;2024-02-16T02:44:36;8.50;99.90
19781;DHT22;10050;55.492;13.506;2024-02-16T02:47:02;8.50;99.90
19781;DHT22;10050;55.492;13.506;2024-02-16T02:49:28;8.50;99.90
19781;DHT22;10050;55.492;13.506;2024-02-16T02:51:53;8.60;99.90
19781;DHT22;10050;55.492;13.506;2024-02-16T02:54:19;8.60;99.90
19781;DHT22;10050;55.492;13.506;2024-02-16T02:56:44;8.60;99.90
19781;DHT22;10050;55.492;13.506;2024-02-16T02:59:10;8.50;99.90
19781;DHT22;10050;55.492;13.506;2024-02-16T03:01:36;8.50;99.90
19781;DHT22;10050;55.492;13.506;2024-02-16T03:04:03;8.60;99.90
19781;DHT22;10050;55.492;13.506;2024-02-16T03:06:28;8.60;99.90
19781;DHT22;10050;55.492;13.506;2024-02-16T03:08:54;8.60;99.90
19781;DHT22;10050;55.492;13.506;2024-02-16T03:11:20;8.60;99.90
19781;DHT22;10050;55.492;13.506;2024-02-16T03:13:46;8.60;99.90
19781;DHT22;10050;55.492;13.506;2024-02-16T03:16:12;8.70;99.90
19781;DHT22;10050;55.492;13.506;2024-02-16T03:18:39;8.70;99.90
19781;DHT22;10050;55.492;13.506;2024-02-16T03:21:05;8.70;99.90
19781;DHT22;10050;55.492;13.506;2024-02-16T03:23:31;8.70;99.90
19781;DHT22;10050;55.492;13.506;2024-02-16T03:25:57;8.70;99.90
19781;DHT22;10050;55.492;13.506;2024-02-16T03:28:22;8.70;99.90
19781;DHT22;10050;55.492;13.506;2024-02-16T03:30:48;8.70;99.90
19781;DHT22;10050;55.492;13.506;2024-02-16T03:33:13;8.70;99.90
19781;DHT22;10050;55.492;13.506;2024-02-16T03:35:39;8.70;99.90
19781;DHT22;10050;55.492;13.506;2024-02-16T03:38:08;8.70;99.90
19781;DHT22;10050;55.492;13.506;2024-02-16T03:40:33;8.70;99.90
19781;DHT22;10050;55.492;13.506;2024-02-16T03:42:59;8.70;99.90
19781;DHT22;10050;55.492;13.506;2024-02-16T03:45:24;8.80;99.90
19781;DHT22;10050;55.492;13.506;2024-02-16T03:47:52;8.80;99.90
19781;DHT22;10050;55.492;13.506;2024-02-16T03:50:21;8.80;99.90
19781;DHT22;10050;55.492;13.506;2024-02-16T03:52:49;8.80;99.90
19781;DHT22;10050;55.492;13.506;2024-02-16T03:55:16;8.80;99.90
19781;DHT22;10050;55.492;13.506;2024-02-16T03:57:42;8.80;99.90
19781;DHT22;10050;55.492;13.506;2024-02-16T04:00:08;8.80;99.90
19781;DHT22;10050;55.492;13.506;2024-02-16T04:02:34;8.80;99.90
19781;DHT22;10050;55.492;13.506;2024-02-16T04:04:59;8.80;99.90
19781;DHT22;10050;55.492;13.506;2024-02-16T04:07:25;8.80;99.90
19781;DHT22;10050;55.492;13.506;2024-02-16T04:09:50;8.70;99.90
19781;DHT22;10050;55.492;13.506;2024-02-16T04:12:16;8.70;99.90
19781;DHT22;10050;55.492;13.506;2024-02-16T04:14:42;8.70;99.90
19781;DHT22;10050;55.492;13.506;2024-02-16T04:17:08;8.80;99.90
19781;DHT22;10050;55.492;13.506;2024-02-16T04:19:36;8.80;99.90
19781;DHT22;10050;55.492;13.506;2024-02-16T04:22:02;8.70;99.90
19781;DHT22;10050;55.492;13.506;2024-02-16T04:24:29;8.70;99.90
19781;DHT22;10050;55.492;13.506;2024-02-16T04:26:56;8.70;99.90
19781;DHT22;10050;55.492;13.506;2024-02-16T04:29:22;8.70;99.90
19781;DHT22;10050;55.492;13.506;2024-02-16T04:31:48;8.80;99.90
19781;DHT22;10050;55.492;13.506;2024-02-16T04:34:14;8.80;99.90
19781;DHT22;10050;55.492;13.506;2024-02-16T04:36:40;8.80;99.90
19781;DHT22;10050;55.492;13.506;2024-02-16T04:39:06;8.80;99.90
19781;DHT22;10050;55.492;13.506;2024-02-16T04:41:31;8.80;99.90
19781;DHT22;10050;55.492;13.506;2024-02-16T04:43:57;8.80;99.90
19781;DHT22;10050;55.492;13.506;2024-02-16T04:46:23;8.80;99.90
19781;DHT22;10050;55.492;13.506;2024-02-16T04:48:49;8.90;99.90
19781;DHT22;10050;55.492;13.506;2024-02-16T04:51:14;8.90;99.90
19781;DHT22;10050;55.492;13.506;2024-02-16T04:53:40;8.90;99.90
19781;DHT22;10050;55.492;13.506;2024-02-16T04:56:06;8.90;99.90
19781;DHT22;10050;55.492;13.506;2024-02-16T04:58:32;8.90;99.90
19781;DHT22;10050;55.492;13.506;2024-02-16T05:00:57;8.90;99.90
19781;DHT22;10050;55.492;13.506;2024-02-16T05:03:23;8.90;99.90
19781;DHT22;10050;55.492;13.506;2024-02-16T05:05:50;8.90;99.90
19781;DHT22;10050;55.492;13.506;2024-02-16T05:08:16;8.90;99.90
19781;DHT22;10050;55.492;13.506;2024-02-16T05:10:42;8.80;99.90
19781;DHT22;10050;55.492;13.506;2024-02-16T05:13:07;8.80;99.90
19781;DHT22;10050;55.492;13.506;2024-02-16T05:15:33;8.80;99.90
19781;DHT22;10050;55.492;13.506;2024-02-16T05:17:59;8.70;99.90
19781;DHT22;10050;55.492;13.506;2024-02-16T05:20:25;8.70;99.90
19781;DHT22;10050;55.492;13.506;2024-02-16T05:22:50;8.70;99.90
19781;DHT22;10050;55.492;13.506;2024-02-16T05:25:17;8.70;99.90
19781;DHT22;10050;55.492;13.506;2024-02-16T05:27:43;8.70;99.90
19781;DHT22;10050;55.492;13.506;2024-02-16T05:30:10;8.60;99.90
19781;DHT22;10050;55.492;13.506;2024-02-16T05:32:38;8.70;99.90
19781;DHT22;10050;55.492;13.506;2024-02-16T05:35:05;8.70;99.90
19781;DHT22;10050;55.492;13.506;2024-02-16T05:37:47;8.70;99.90
19781;DHT22;10050;55.492;13.506;2024-02-16T05:40:15;8.70;99.90
19781;DHT22;10050;55.492;13.506;2024-02-16T05:42:54;8.70;99.90
19781;DHT22;10050;55.492;13.506;2024-02-16T05:45:23;8.70;99.90
19781;DHT22;10050;55.492;13.506;2024-02-16T05:47:49;8.60;99.90
19781;DHT22;10050;55.492;13.506;2024-02-16T05:50:15;8.60;99.90
19781;DHT22;10050;55.492;13.506;2024-02-16T05:52:42;8.60;99.90
19781;DHT22;10050;55.492;13.506;2024-02-16T05:55:09;8.60;99.90
19781;DHT22;10050;55.492;13.506;2024-02-16T05:57:36;8.60;99.90
19781;DHT22;10050;55.492;13.506;2024-02-16T06:00:04;8.60;99.90
19781;DHT22;10050;55.492;13.506;2024-02-16T06:02:36;8.50;99.90
19781;DHT22;10050;55.492;13.506;2024-02-16T06:05:26;8.60;99.90
19781;DHT22;10050;55.492;13.506;2024-02-16T06:07:58;8.60;99.90
19781;DHT22;10050;55.492;13.506;2024-02-16T06:10:24;8.60;99.90
19781;DHT22;10050;55.492;13.506;2024-02-16T06:12:50;8.60;99.90
19781;DHT22;10050;55.492;13.506;2024-02-16T06:15:16;8.60;99.90
19781;DHT22;10050;55.492;13.506;2024-02-16T06:17:42;8.60;99.90
19781;DHT22;10050;55.492;13.506;2024-02-16T06:20:08;8.60;99.90
19781;DHT22;10050;55.492;13.506;2024-02-16T06:22:36;8.60;99.90
19781;DHT22;10050;55.492;13.506;2024-02-16T06:25:02;8.60;99.90
19781;DHT22;10050;55.492;13.506;2024-02-16T06:27:28;8.60;99.90
19781;DHT22;10050;55.492;13.506;2024-02-16T06:29:53;8.60;99.90
19781;DHT22;10050;55.492;13.506;2024-02-16T06:32:19;8.60;99.90
19781;DHT22;10050;55.492;13.506;2024-02-16T06:34:46;8.60;99.90
19781;DHT22;10050;55.492;13.506;2024-02-16T06:37:12;8.60;99.90
19781;DHT22;10050;55.492;13.506;2024-02-16T06:39:40;8.70;99.90
19781;DHT22;10050;55.492;13.506;2024-02-16T06:42:06;8.70;99.90
19781;DHT22;10050;55.492;13.506;2024-02-16T06:44:31;8.70;99.90
19781;DHT22;10050;55.492;13.506;2024-02-16T06:46:58;8.70;99.90
19781;DHT22;10050;55.492;13.506;2024-02-16T06:49:24;8.70;99.90
19781;DHT22;10050;55.492;13.506;2024-02-16T06:51:49;8.80;99.90
19781;DHT22;10050;55.492;13.506;2024-02-16T06:54:15;8.80;99.90
19781;DHT22;10050;55.492;13.506;2024-02-16T06:56:41;8.80;99.90
19781;DHT22;10050;55.492;13.506;2024-02-16T06:59:06;8.80;99.90
19781;DHT22;10050;55.492;13.506;2024-02-16T07:01:32;8.70;99.90
19781;DHT22;10050;55.492;13.506;2024-02-16T07:03:57;8.70;99.90
19781;DHT22;10050;55.492;13.506;2024-02-16T07:06:23;8.70;99.90
19781;DHT22;10050;55.492;13.506;2024-02-16T07:08:48;8.60;99.90
19781;DHT22;10050;55.492;13.506;2024-02-16T07:11:14;8.60;99.90
19781;DHT22;10050;55.492;13.506;2024-02-16T07:13:40;8.60;99.90
19781;DHT22;10050;55.492;13.506;2024-02-16T07:16:08;8.60;99.90
19781;DHT22;10050;55.492;13.506;2024-02-16T07:18:34;8.50;99.90
19781;DHT22;10050;55.492;13.506;2024-02-16T07:21:00;8.40;99.90
19781;DHT22;10050;55.492;13.506;2024-02-16T07:23:26;8.30;99.90
19781;DHT22;10050;55.492;13.506;2024-02-16T07:25:52;8.30;99.90
19781;DHT22;10050;55.492;13.506;2024-02-16T07:28:22;8.30;99.90
19781;DHT22;10050;55.492;13.506;2024-02-16T07:30:49;8.30;99.90
19781;DHT22;10050;55.492;13.506;2024-02-16T07:33:22;8.20;99.90
19781;DHT22;10050;55.492;13.506;2024-02-16T07:35:49;8.20;99.90
19781;DHT22;10050;55.492;13.506;2024-02-16T07:38:15;8.20;99.90
19781;DHT22;10050;55.492;13.506;2024-02-16T07:40:50;8.10;99.90
19781;DHT22;10050;55.492;13.506;2024-02-16T07:43:16;8.10;99.90
19781;DHT22;10050;55.492;13.506;2024-02-16T07:45:43;8.10;99.90
19781;DHT22;10050;55.492;13.506;2024-02-16T07:48:08;8.10;99.90
19781;DHT22;10050;55.492;13.506;2024-02-16T07:50:34;8.10;99.90
19781;DHT22;10050;55.492;13.506;2024-02-16T07:53:00;8.20;99.90
19781;DHT22;10050;55.492;13.506;2024-02-16T07:55:25;8.20;99.90
19781;DHT22;10050;55.492;13.506;2024-02-16T07:57:51;8.10;99.90
19781;DHT22;10050;55.492;13.506;2024-02-16T08:00:18;8.10;99.90
19781;DHT22;10050;55.492;13.506;2024-02-16T08:02:44;8.10;99.90
19781;DHT22;10050;55.492;13.506;2024-02-16T08:05:13;8.10;99.90
19781;DHT22;10050;55.492;13.506;2024-02-16T08:07:42;8.10;99.90
19781;DHT22;10050;55.492;13.506;2024-02-16T08:10:10;8.10;99.90
19781;DHT22;10050;55.492;13.506;2024-02-16T08:12:37;8.20;99.90
19781;DHT22;10050;55.492;13.506;2024-02-16T08:15:04;8.20;99.90
19781;DHT22;10050;55.492;13.506;2024-02-16T08:17:33;8.30;99.90
19781;DHT22;10050;55.492;13.506;2024-02-16T08:19:59;8.30;99.90
19781;DHT22;10050;55.492;13.506;2024-02-16T08:22:25;8.40;99.90
19781;DHT22;10050;55.492;13.506;2024-02-16T08:24:50;8.40;99.90
19781;DHT22;10050;55.492;13.506;2024-02-16T08:27:17;8.50;99.90
19781;DHT22;10050;55.492;13.506;2024-02-16T08:29:43;8.50;99.90
19781;DHT22;10050;55.492;13.506;2024-02-16T08:32:10;8.50;99.90
19781;DHT22;10050;55.492;13.506;2024-02-16T08:34:35;8.50;99.90
19781;DHT22;10050;55.492;13.506;2024-02-16T08:37:05;8.50;99.90
19781;DHT22;10050;55.492;13.506;2024-02-16T08:39:31;8.50;99.90
19781;DHT22;10050;55.492;13.506;2024-02-16T08:41:57;8.50;99.90
19781;DHT22;10050;55.492;13.506;2024-02-16T08:44:24;8.50;99.90
19781;DHT22;10050;55.492;13.506;2024-02-16T08:46:50;8.40;99.90
19781;DHT22;10050;55.492;13.506;2024-02-16T08:49:16;8.40;99.90
19781;DHT22;10050;55.492;13.506;2024-02-16T08:51:42;8.40;99.90
19781;DHT22;10050;55.492;13.506;2024-02-16T08:54:08;8.50;99.90
19781;DHT22;10050;55.492;13.506;2024-02-16T08:56:34;8.40;99.90
19781;DHT22;10050;55.492;13.506;2024-02-16T08:59:01;8.40;99.90
19781;DHT22;10050;55.492;13.506;2024-02-16T09:01:34;8.50;99.90
19781;DHT22;10050;55.492;13.506;2024-02-16T09:04:00;8.50;99.90
19781;DHT22;10050;55.492;13.506;2024-02-16T09:06:27;8.50;99.90
19781;DHT22;10050;55.492;13.506;2024-02-16T09:08:53;8.50;99.90
19781;DHT22;10050;55.492;13.506;2024-02-16T09:11:19;8.50;99.90
19781;DHT22;10050;55.492;13.506;2024-02-16T09:13:45;8.50;99.90
19781;DHT22;10050;55.492;13.506;2024-02-16T09:16:10;8.40;99.90
19781;DHT22;10050;55.492;13.506;2024-02-16T09:18:36;8.50;99.90
19781;DHT22;10050;55.492;13.506;2024-02-16T09:21:05;8.40;99.90
19781;DHT22;10050;55.492;13.506;2024-02-16T09:23:35;8.40;99.90
19781;DHT22;10050;55.492;13.506;2024-02-16T09:26:01;8.50;99.90
19781;DHT22;10050;55.492;13.506;2024-02-16T09:28:30;8.60;99.90
19781;DHT22;10050;55.492;13.506;2024-02-16T09:30:56;8.70;99.90
19781;DHT22;10050;55.492;13.506;2024-02-16T09:33:22;8.80;99.90
19781;DHT22;10050;55.492;13.506;2024-02-16T09:35:49;8.70;99.90
19781;DHT22;10050;55.492;13.506;2024-02-16T09:38:15;8.70;99.90
19781;DHT22;10050;55.492;13.506;2024-02-16T09:40:42;8.70;99.90
19781;DHT22;10050;55.492;13.506;2024-02-16T09:43:07;8.60;99.90
19781;DHT22;10050;55.492;13.506;2024-02-16T09:45:33;8.60;99.90
19781;DHT22;10050;55.492;13.506;2024-02-16T09:47:59;8.60;99.90
19781;DHT22;10050;55.492;13.506;2024-02-16T09:50:28;8.50;99.90
19781;DHT22;10050;55.492;13.506;2024-02-16T09:52:54;8.50;99.90
19781;DHT22;10050;55.492;13.506;2024-02-16T09:55:21;8.50;99.90
19781;DHT22;10050;55.492;13.506;2024-02-16T09:58:01;8.50;99.90
19781;DHT22;10050;55.492;13.506;2024-02-16T10:00:27;8.40;99.90
19781;DHT22;10050;55.492;13.506;2024-02-16T10:02:53;8.50;99.90
19781;DHT22;10050;55.492;13.506;2024-02-16T10:05:22;8.50;99.90
19781;DHT22;10050;55.492;13.506;2024-02-16T10:07:48;8.50;99.90
19781;DHT22;10050;55.492;13.506;2024-02-16T10:10:32;8.70;99.90
19781;DHT22;10050;55.492;13.506;2024-02-16T10:13:06;8.90;99.90
19781;DHT22;10050;55.492;13.506;2024-02-16T10:15:34;9.00;99.90
19781;DHT22;10050;55.492;13.506;2024-02-16T10:18:06;9.20;99.90
19781;DHT22;10050;55.492;13.506;2024-02-16T10:20:33;9.80;99.90
19781;DHT22;10050;55.492;13.506;2024-02-16T10:25:33;11.00;99.90
19781;DHT22;10050;55.492;13.506;2024-02-16T10:28:04;11.30;99.90
19781;DHT22;10050;55.492;13.506;2024-02-16T10:30:36;11.40;99.90
19781;DHT22;10050;55.492;13.506;2024-02-16T10:33:06;11.50;99.90
19781;DHT22;10050;55.492;13.506;2024-02-16T10:35:34;11.40;99.90
19781;DHT22;10050;55.492;13.506;2024-02-16T10:38:06;11.30;99.90
19781;DHT22;10050;55.492;13.506;2024-02-16T10:40:40;11.40;99.90
19781;DHT22;10050;55.492;13.506;2024-02-16T10:43:07;11.50;99.90
19781;DHT22;10050;55.492;13.506;2024-02-16T10:45:42;11.60;99.90
19781;DHT22;10050;55.492;13.506;2024-02-16T10:48:09;11.30;99.90
19781;DHT22;10050;55.492;13.506;2024-02-16T10:50:36;11.30;99.90
19781;DHT22;10050;55.492;13.506;2024-02-16T10:53:15;11.30;99.90
19781;DHT22;10050;55.492;13.506;2024-02-16T10:55:44;11.50;99.90
19781;DHT22;10050;55.492;13.506;2024-02-16T10:58:11;11.30;99.90
19781;DHT22;10050;55.492;13.506;2024-02-16T11:00:50;11.40;99.90
19781;DHT22;10050;55.492;13.506;2024-02-16T11:03:17;11.60;99.90
19781;DHT22;10050;55.492;13.506;2024-02-16T11:05:43;12.00;99.90
19781;DHT22;10050;55.492;13.506;2024-02-16T11:08:17;11.90;99.90
19781;DHT22;10050;55.492;13.506;2024-02-16T11:10:56;12.00;99.90
19781;DHT22;10050;55.492;13.506;2024-02-16T11:13:23;11.90;99.90
19781;DHT22;10050;55.492;13.506;2024-02-16T11:15:57;12.00;99.90
19781;DHT22;10050;55.492;13.506;2024-02-16T11:18:24;11.90;99.90
19781;DHT22;10050;55.492;13.506;2024-02-16T11:20:49;11.30;99.90
19781;DHT22;10050;55.492;13.506;2024-02-16T11:23:15;11.10;99.90
19781;DHT22;10050;55.492;13.506;2024-02-16T11:25:50;11.00;99.90
19781;DHT22;10050;55.492;13.506;2024-02-16T11:28:19;10.90;99.90
19781;DHT22;10050;55.492;13.506;2024-02-16T11:30:44;10.70;99.90
19781;DHT22;10050;55.492;13.506;2024-02-16T11:33:11;10.70;99.90
19781;DHT22;10050;55.492;13.506;2024-02-16T11:35:37;10.70;99.90
19781;DHT22;10050;55.492;13.506;2024-02-16T11:38:04;10.70;99.90
19781;DHT22;10050;55.492;13.506;2024-02-16T11:40:30;10.80;99.90
19781;DHT22;10050;55.492;13.506;2024-02-16T11:43:01;10.60;99.90
19781;DHT22;10050;55.492;13.506;2024-02-16T11:45:27;10.40;99.90
19781;DHT22;10050;55.492;13.506;2024-02-16T11:48:06;10.10;99.90
19781;DHT22;10050;55.492;13.506;2024-02-16T11:50:35;10.00;99.90
19781;DHT22;10050;55.492;13.506;2024-02-16T11:53:01;10.00;99.90
19781;DHT22;10050;55.492;13.506;2024-02-16T11:55:27;10.00;99.90
19781;DHT22;10050;55.492;13.506;2024-02-16T11:57:52;9.90;99.90
19781;DHT22;10050;55.492;13.506;2024-02-16T12:00:29;9.90;99.90
19781;DHT22;10050;55.492;13.506;2024-02-16T12:03:01;9.80;99.90
19781;DHT22;10050;55.492;13.506;2024-02-16T12:05:27;9.80;99.90
19781;DHT22;10050;55.492;13.506;2024-02-16T12:07:52;9.70;99.90
19781;DHT22;10050;55.492;13.506;2024-02-16T12:10:24;9.70;99.90
19781;DHT22;10050;55.492;13.506;2024-02-16T12:12:58;9.70;99.90
19781;DHT22;10050;55.492;13.506;2024-02-16T12:15:24;9.70;99.90
19781;DHT22;10050;55.492;13.506;2024-02-16T12:18:01;9.60;99.90
19781;DHT22;10050;55.492;13.506;2024-02-16T12:20:27;9.60;99.90
19781;DHT22;10050;55.492;13.506;2024-02-16T12:22:53;9.60;99.90
19781;DHT22;10050;55.492;13.506;2024-02-16T12:25:18;9.60;99.90
19781;DHT22;10050;55.492;13.506;2024-02-16T12:27:44;9.70;99.90
19781;DHT22;10050;55.492;13.506;2024-02-16T12:30:10;9.70;99.90
19781;DHT22;10050;55.492;13.506;2024-02-16T12:32:36;9.70;99.90
19781;DHT22;10050;55.492;13.506;2024-02-16T12:35:02;9.80;99.90
19781;DHT22;10050;55.492;13.506;2024-02-16T12:37:30;9.90;99.90
19781;DHT22;10050;55.492;13.506;2024-02-16T12:39:56;9.90;99.90
19781;DHT22;10050;55.492;13.506;2024-02-16T12:42:21;9.90;99.90
19781;DHT22;10050;55.492;13.506;2024-02-16T12:44:47;9.90;99.90
19781;DHT22;10050;55.492;13.506;2024-02-16T12:47:12;9.90;99.90
19781;DHT22;10050;55.492;13.506;2024-02-16T12:49:38;10.00;99.90
19781;DHT22;10050;55.492;13.506;2024-02-16T12:52:04;10.00;99.90
19781;DHT22;10050;55.492;13.506;2024-02-16T12:54:30;10.00;99.90
19781;DHT22;10050;55.492;13.506;2024-02-16T12:56:57;9.90;99.90
19781;DHT22;10050;55.492;13.506;2024-02-16T12:59:22;10.00;99.90
19781;DHT22;10050;55.492;13.506;2024-02-16T13:01:48;9.80;99.90
19781;DHT22;10050;55.492;13.506;2024-02-16T13:04:15;9.70;99.90
19781;DHT22;10050;55.492;13.506;2024-02-16T13:06:47;9.60;99.90
19781;DHT22;10050;55.492;13.506;2024-02-16T13:09:14;9.70;99.90
19781;DHT22;10050;55.492;13.506;2024-02-16T13:11:40;9.70;99.90
19781;DHT22;10050;55.492;13.506;2024-02-16T13:14:06;9.90;99.90
19781;DHT22;10050;55.492;13.506;2024-02-16T13:16:32;9.80;99.90
19781;DHT22;10050;55.492;13.506;2024-02-16T13:18:57;9.80;99.90
19781;DHT22;10050;55.492;13.506;2024-02-16T13:21:23;9.70;99.90
19781;DHT22;10050;55.492;13.506;2024-02-16T13:23:49;9.70;99.90
19781;DHT22;10050;55.492;13.506;2024-02-16T13:26:17;9.60;99.90
19781;DHT22;10050;55.492;13.506;2024-02-16T13:28:42;9.70;99.90
19781;DHT22;10050;55.492;13.506;2024-02-16T13:31:09;9.70;99.90
19781;DHT22;10050;55.492;13.506;2024-02-16T13:33:36;9.80;99.90
19781;DHT22;10050;55.492;13.506;2024-02-16T13:36:02;9.80;99.90
19781;DHT22;10050;55.492;13.506;2024-02-16T13:38:29;10.00;99.90
19781;DHT22;10050;55.492;13.506;2024-02-16T13:40:55;10.10;99.90
19781;DHT22;10050;55.492;13.506;2024-02-16T13:43:23;10.00;99.90
19781;DHT22;10050;55.492;13.506;2024-02-16T13:45:53;10.10;99.90
19781;DHT22;10050;55.492;13.506;2024-02-16T13:48:19;10.10;99.90
19781;DHT22;10050;55.492;13.506;2024-02-16T13:50:48;10.10;99.90
19781;DHT22;10050;55.492;13.506;2024-02-16T13:53:15;10.10;99.90
19781;DHT22;10050;55.492;13.506;2024-02-16T13:55:42;10.00;99.90
19781;DHT22;10050;55.492;13.506;2024-02-16T13:58:12;10.00;99.90
19781;DHT22;10050;55.492;13.506;2024-02-16T14:00:37;10.00;99.90
19781;DHT22;10050;55.492;13.506;2024-02-16T14:03:08;9.90;99.90
19781;DHT22;10050;55.492;13.506;2024-02-16T14:05:38;10.00;99.90
19781;DHT22;10050;55.492;13.506;2024-02-16T14:08:04;10.00;99.90
19781;DHT22;10050;55.492;13.506;2024-02-16T14:10:33;10.00;99.90
19781;DHT22;10050;55.492;13.506;2024-02-16T14:12:59;9.90;99.90
19781;DHT22;10050;55.492;13.506;2024-02-16T14:15:24;10.00;99.90
19781;DHT22;10050;55.492;13.506;2024-02-16T14:17:50;9.90;99.90
19781;DHT22;10050;55.492;13.506;2024-02-16T14:20:16;9.90;99.90
19781;DHT22;10050;55.492;13.506;2024-02-16T14:22:42;9.80;99.90
19781;DHT22;10050;55.492;13.506;2024-02-16T14:25:07;9.80;99.90
19781;DHT22;10050;55.492;13.506;2024-02-16T14:27:36;9.80;99.90
19781;DHT22;10050;55.492;13.506;2024-02-16T14:30:04;9.70;99.90
19781;DHT22;10050;55.492;13.506;2024-02-16T14:32:30;9.70;99.90
19781;DHT22;10050;55.492;13.506;2024-02-16T14:34:55;9.60;99.90
19781;DHT22;10050;55.492;13.506;2024-02-16T14:37:21;9.60;99.90
19781;DHT22;10050;55.492;13.506;2024-02-16T14:39:47;9.60;99.90
19781;DHT22;10050;55.492;13.506;2024-02-16T14:42:13;9.60;99.90
19781;DHT22;10050;55.492;13.506;2024-02-16T14:44:39;9.60;99.90
19781;DHT22;10050;55.492;13.506;2024-02-16T14:47:05;9.50;99.90
19781;DHT22;10050;55.492;13.506;2024-02-16T14:49:30;9.50;99.90
19781;DHT22;10050;55.492;13.506;2024-02-16T14:51:57;9.50;99.90
19781;DHT22;10050;55.492;13.506;2024-02-16T14:54:23;9.40;99.90
19781;DHT22;10050;55.492;13.506;2024-02-16T14:56:52;9.40;99.90
19781;DHT22;10050;55.492;13.506;2024-02-16T14:59:20;9.40;99.90
19781;DHT22;10050;55.492;13.506;2024-02-16T15:01:46;9.30;99.90
19781;DHT22;10050;55.492;13.506;2024-02-16T15:04:12;9.30;99.90
19781;DHT22;10050;55.492;13.506;2024-02-16T15:06:37;9.20;99.90
19781;DHT22;10050;55.492;13.506;2024-02-16T15:09:03;9.20;99.90
19781;DHT22;10050;55.492;13.506;2024-02-16T15:11:29;9.10;99.90
19781;DHT22;10050;55.492;13.506;2024-02-16T15:13:58;9.10;99.90
19781;DHT22;10050;55.492;13.506;2024-02-16T15:16:23;9.10;99.90
19781;DHT22;10050;55.492;13.506;2024-02-16T15:18:49;9.10;99.90
19781;DHT22;10050;55.492;13.506;2024-02-16T15:21:15;9.10;99.90
19781;DHT22;10050;55.492;13.506;2024-02-16T15:23:40;9.00;99.90
19781;DHT22;10050;55.492;13.506;2024-02-16T15:26:06;9.00;99.90
19781;DHT22;10050;55.492;13.506;2024-02-16T15:28:34;9.00;99.90